Time;durP1;ratioP1;P1;durP2;ratioP2;P2;SDS_P1;SDS_P2;PMS_P1;PMS_P2;Temp;Humidity;BMP_temperature;BMP_pressure;BME280_temperature;BME280_humidity;BME280_pressure;Samples;Min_cycle;Max_cycle;Signal;HPM_P1;HPM_P2
2022/01/16 00:04:40;;;;;;;63.05;28.65;;;3.00;90.10;;;;;;5111913;28;20051;-67
2022/01/16 00:07:06;;;;;;;53.65;28.65;;;2.90;90.10;;;;;;5128631;28;20045;-67
2022/01/16 00:09:32;;;;;;;59.17;29.08;;;3.00;90.00;;;;;;5128543;27;20400;-67
2022/01/16 00:12:00;;;;;;;58.47;29.00;;;3.00;89.80;;;;;;5121141;28;20082;-67
2022/01/16 00:14:28;;;;;;;60.50;28.85;;;2.90;89.80;;;;;;5109336;28;20078;-67
2022/01/16 00:16:54;;;;;;;55.97;28.05;;;2.90;89.90;;;;;;5111590;28;20047;-67
2022/01/16 00:19:19;;;;;;;55.17;28.20;;;2.90;89.90;;;;;;5113724;28;20040;-67
2022/01/16 00:21:45;;;;;;;55.35;27.88;;;2.90;89.90;;;;;;5108921;28;20043;-67
2022/01/16 00:24:11;;;;;;;58.50;28.65;;;3.00;90.00;;;;;;5120357;27;20035;-66
2022/01/16 00:26:38;;;;;;;52.55;29.00;;;3.00;89.80;;;;;;5108638;28;20449;-66
2022/01/16 00:29:08;;;;;;;59.97;28.60;;;3.00;89.90;;;;;;5125712;28;20552;-67
2022/01/16 00:31:37;;;;;;;62.63;29.98;;;3.10;89.90;;;;;;5125812;28;20517;-69
2022/01/16 00:34:04;;;;;;;52.17;27.73;;;3.00;89.60;;;;;;5109394;28;20082;-67
2022/01/16 00:36:29;;;;;;;54.40;27.15;;;3.00;89.70;;;;;;5127571;28;20118;-67
2022/01/16 00:38:57;;;;;;;59.97;27.25;;;3.10;89.70;;;;;;5128985;28;20118;-67
2022/01/16 00:41:23;;;;;;;61.17;28.67;;;3.10;89.70;;;;;;5111480;28;20048;-67
2022/01/16 00:43:50;;;;;;;59.10;27.25;;;3.10;89.80;;;;;;5129465;28;20065;-68
2022/01/16 00:46:16;;;;;;;60.65;28.10;;;3.10;89.70;;;;;;5128800;28;20047;-68
2022/01/16 00:48:42;;;;;;;61.35;29.38;;;3.10;89.80;;;;;;5121060;28;20046;-67
2022/01/16 00:51:08;;;;;;;60.60;28.00;;;3.20;89.80;;;;;;5125436;27;20039;-67
2022/01/16 00:53:34;;;;;;;54.63;27.95;;;3.20;89.90;;;;;;5106622;27;20535;-68
2022/01/16 00:56:00;;;;;;;66.07;29.25;;;3.20;89.90;;;;;;5130824;27;20046;-67
2022/01/16 00:58:25;;;;;;;63.00;29.45;;;3.20;89.90;;;;;;5130310;27;20049;-67
2022/01/16 01:00:51;;;;;;;66.38;31.27;;;3.20;90.00;;;;;;5129435;27;20082;-67
2022/01/16 01:03:17;;;;;;;63.55;30.33;;;3.20;89.90;;;;;;5127964;27;20081;-67
2022/01/16 01:05:43;;;;;;;72.82;31.08;;;3.20;90.00;;;;;;5130708;27;20422;-67
2022/01/16 01:08:09;;;;;;;70.00;33.17;;;3.30;90.00;;;;;;5129947;27;20059;-67
2022/01/16 01:10:38;;;;;;;69.40;30.33;;;3.30;90.10;;;;;;5127350;27;20670;-67
2022/01/16 01:13:12;;;;;;;64.65;31.50;;;3.30;90.00;;;;;;5126533;27;20047;-66
2022/01/16 01:15:44;;;;;;;73.82;31.85;;;3.30;90.20;;;;;;5129377;27;20114;-67
2022/01/16 01:18:09;;;;;;;;;;;3.40;90.20;;;;;;5111129;27;20807;-67
2022/01/16 01:20:37;;;;;;;72.75;30.85;;;3.40;90.20;;;;;;5128928;27;19933;-67
2022/01/16 01:23:03;;;;;;;68.57;31.27;;;3.40;90.30;;;;;;5129000;27;20043;-67
2022/01/16 01:25:28;;;;;;;72.60;30.92;;;3.40;90.30;;;;;;5092280;27;20384;-67
2022/01/16 01:27:54;;;;;;;72.40;31.23;;;3.50;90.20;;;;;;5129195;27;20031;-67
2022/01/16 01:30:23;;;;;;;67.93;30.75;;;3.50;90.20;;;;;;5128557;27;20507;-67
2022/01/16 01:32:49;;;;;;;71.07;32.33;;;3.50;90.30;;;;;;5093421;27;20039;-67
2022/01/16 01:35:18;;;;;;;73.68;32.30;;;3.50;90.30;;;;;;5129641;27;20039;-67
2022/01/16 01:37:45;;;;;;;78.80;31.27;;;3.60;90.30;;;;;;5110261;27;20125;-67
2022/01/16 01:40:16;;;;;;;73.70;31.80;;;3.60;90.30;;;;;;5126911;27;20105;-66
2022/01/16 01:43:01;;;;;;;75.97;31.40;;;3.60;90.30;;;;;;5126325;27;20110;-67
2022/01/16 01:51:35;;;;;;;71.30;31.52;;;3.70;90.50;;;;;;5110370;27;20625;-67
2022/01/16 01:54:01;;;;;;;78.43;32.42;;;3.70;90.50;;;;;;5128326;27;22083;-67
2022/01/16 01:56:27;;;;;;;92.20;33.75;;;3.60;90.40;;;;;;5128037;27;20259;-67
2022/01/16 01:58:54;;;;;;;80.00;32.38;;;3.70;90.50;;;;;;5128715;27;20100;-68
2022/01/16 02:01:21;;;;;;;80.38;32.10;;;3.70;90.50;;;;;;5126544;27;20035;-67
2022/01/16 02:03:48;;;;;;;82.38;32.05;;;3.60;90.60;;;;;;5110990;27;20053;-67
2022/01/16 02:06:17;;;;;;;77.22;32.67;;;3.70;90.70;;;;;;5108739;27;20039;-67
2022/01/16 02:08:45;;;;;;;80.20;33.58;;;3.70;90.80;;;;;;5128827;27;20047;-67
2022/01/16 02:11:16;;;;;;;69.85;30.20;;;3.70;90.80;;;;;;5126591;27;20066;-67
2022/01/16 02:35:05;;;;;;;86.75;33.63;;;3.60;91.20;;;;;;5126572;27;20043;-67
2022/01/16 02:37:31;;;;;;;89.30;32.80;;;3.60;91.40;;;;;;5101884;27;20671;-67
2022/01/16 02:40:04;;;;;;;85.50;32.72;;;3.60;91.40;;;;;;5127776;27;20051;-67
2022/01/16 02:42:36;;;;;;;77.65;33.28;;;3.60;91.40;;;;;;5124422;27;20495;-68
2022/01/16 02:45:04;;;;;;;95.38;34.58;;;3.60;91.40;;;;;;5127113;27;20043;-67
2022/01/16 02:47:30;;;;;;;80.55;31.90;;;3.60;91.40;;;;;;5128092;27;20050;-67
2022/01/16 02:49:59;;;;;;;94.30;36.42;;;3.60;91.40;;;;;;5128069;27;20039;-67
2022/01/16 02:52:24;;;;;;;95.65;34.03;;;3.50;91.40;;;;;;5109522;27;20491;-67
2022/01/16 02:54:53;;;;;;;99.28;35.25;;;3.50;91.60;;;;;;5127644;27;20129;-67
2022/01/16 02:57:21;;;;;;;93.30;37.10;;;3.50;91.60;;;;;;5126051;27;20047;-67
2022/01/16 02:59:55;;;;;;;85.15;35.95;;;3.60;91.60;;;;;;5127769;27;20039;-67
2022/01/16 03:02:22;;;;;;;85.75;33.15;;;3.50;91.70;;;;;;5126817;27;20046;-67
2022/01/16 03:04:48;;;;;;;90.90;37.03;;;3.60;91.60;;;;;;5092201;27;20043;-67
2022/01/16 03:07:15;;;;;;;92.07;36.22;;;3.60;91.60;;;;;;5109262;27;20106;-67
2022/01/16 03:10:14;;;;;;;93.18;36.20;;;3.70;91.60;;;;;;5127136;27;20479;-67
2022/01/16 03:12:27;;;;;;;98.25;34.90;;;3.70;91.60;;;;;;5124605;27;20047;-67
2022/01/16 03:14:53;;;;;;;90.95;34.58;;;3.60;91.70;;;;;;5127681;27;20038;-67
2022/01/16 03:17:34;;;;;;;92.75;37.60;;;3.70;91.70;;;;;;5091491;27;20176;-67
2022/01/16 03:22:45;;;;;;;89.68;34.80;;;3.80;91.70;;;;;;5127634;27;20317;-67
2022/01/16 03:25:11;;;;;;;97.53;36.22;;;3.70;91.70;;;;;;5126890;27;20547;-67
2022/01/16 03:27:38;;;;;;;107.22;36.15;;;3.80;91.60;;;;;;5126346;27;20035;-66
2022/01/16 03:30:05;;;;;;;92.50;39.58;;;3.80;91.60;;;;;;5126861;27;20500;-67
2022/01/16 03:32:30;;;;;;;94.82;38.08;;;3.80;91.80;;;;;;5125593;27;20279;-67
2022/01/16 03:34:56;;;;;;;100.75;38.53;;;3.80;91.80;;;;;;5126716;27;20495;-67
2022/01/16 03:37:22;;;;;;;95.78;37.10;;;3.90;92.10;;;;;;5126986;27;20122;-67
2022/01/16 03:39:48;;;;;;;102.95;39.15;;;3.90;92.00;;;;;;5126165;27;20039;-67
2022/01/16 03:42:14;;;;;;;104.75;39.88;;;4.00;92.00;;;;;;5129423;27;20050;-67
2022/01/16 03:44:40;;;;;;;96.45;38.92;;;4.10;92.20;;;;;;5125793;27;20071;-68
2022/01/16 03:47:06;;;;;;;100.32;39.50;;;4.10;92.30;;;;;;5123833;27;20074;-67
2022/01/16 03:49:31;;;;;;;99.28;38.20;;;4.20;92.20;;;;;;5128734;27;20122;-67
2022/01/16 03:52:00;;;;;;;100.75;37.97;;;4.20;92.10;;;;;;5097810;27;20038;-67
2022/01/16 03:54:29;;;;;;;96.82;37.25;;;4.30;92.00;;;;;;5118490;27;20117;-67
2022/01/16 03:56:55;;;;;;;99.97;39.40;;;4.30;92.00;;;;;;5124954;27;20063;-67
2022/01/16 03:59:21;;;;;;;99.85;38.65;;;4.30;92.00;;;;;;5129104;27;20031;-67
2022/01/16 04:01:47;;;;;;;90.40;36.92;;;4.40;92.00;;;;;;5128237;28;20563;-67
2022/01/16 04:04:13;;;;;;;101.32;38.45;;;4.40;92.10;;;;;;5129500;28;20142;-67
2022/01/16 04:06:39;;;;;;;96.63;39.35;;;4.40;92.10;;;;;;5128329;28;20057;-66
2022/01/16 04:09:05;;;;;;;104.78;40.88;;;4.50;92.10;;;;;;5128853;28;20047;-67
2022/01/16 04:11:31;;;;;;;103.93;39.30;;;4.50;92.00;;;;;;5124112;27;20051;-67
2022/01/16 04:14:07;;;;;;;96.05;39.38;;;4.60;92.00;;;;;;5110649;28;20054;-67
2022/01/16 04:16:34;;;;;;;102.70;39.00;;;4.60;92.00;;;;;;5128809;28;20062;-67
2022/01/16 04:19:00;;;;;;;91.97;37.63;;;4.60;92.00;;;;;;5129037;28;20059;-67
2022/01/16 04:21:28;;;;;;;107.80;39.63;;;4.60;92.00;;;;;;5128330;28;20104;-67
2022/01/16 04:23:54;;;;;;;97.50;40.30;;;4.60;91.90;;;;;;5128258;27;20084;-67
2022/01/16 04:26:20;;;;;;;111.13;43.97;;;4.60;91.80;;;;;;5130692;27;20093;-67
2022/01/16 04:28:46;;;;;;;105.15;41.15;;;4.70;91.90;;;;;;5131940;27;20039;-67
2022/01/16 04:31:13;;;;;;;104.88;41.47;;;4.70;91.70;;;;;;5114110;27;20066;-67
2022/01/16 04:33:39;;;;;;;107.00;41.72;;;4.70;91.80;;;;;;5131944;27;20574;-67
2022/01/16 04:36:06;;;;;;;118.28;45.33;;;4.70;91.90;;;;;;5131978;27;20043;-67
2022/01/16 04:38:34;;;;;;;114.22;44.75;;;4.60;91.80;;;;;;5132385;27;20065;-67
2022/01/16 04:43:53;;;;;;;129.10;45.55;;;4.70;92.00;;;;;;5132139;27;20069;-67
2022/01/16 04:46:21;;;;;;;127.22;47.25;;;4.70;91.90;;;;;;5120817;27;20130;-68
2022/01/16 04:48:48;;;;;;;118.38;48.47;;;4.70;91.80;;;;;;5128711;27;20566;-67
2022/01/16 04:51:13;;;;;;;110.88;44.40;;;4.70;91.90;;;;;;5112475;27;20054;-66
2022/01/16 04:53:40;;;;;;;128.90;47.58;;;4.70;92.10;;;;;;5133243;27;20539;-67
2022/01/16 04:56:07;;;;;;;116.80;47.35;;;4.70;92.00;;;;;;5131952;27;20043;-67
2022/01/16 04:58:34;;;;;;;111.63;43.90;;;4.80;92.10;;;;;;5132402;27;20039;-66
2022/01/16 05:00:59;;;;;;;118.05;46.92;;;4.70;92.20;;;;;;5127419;27;20048;-67
2022/01/16 05:03:27;;;;;;;109.43;42.65;;;4.80;92.10;;;;;;5108613;27;20070;-67
2022/01/16 05:05:52;;;;;;;115.15;44.50;;;4.80;92.10;;;;;;5122448;27;20092;-67
2022/01/16 05:08:18;;;;;;;109.15;46.00;;;4.80;92.00;;;;;;5117231;27;20036;-67
2022/01/16 05:10:44;;;;;;;106.07;43.40;;;4.90;92.10;;;;;;5095449;28;20295;-67
2022/01/16 05:18:48;;;;;;;107.95;42.38;;;4.90;92.00;;;;;;5103515;28;20105;-67
2022/01/16 05:21:14;;;;;;;105.90;40.88;;;4.90;92.00;;;;;;5105371;28;20047;-67
2022/01/16 05:23:43;;;;;;;104.03;44.50;;;4.90;92.10;;;;;;5110442;28;20043;-67
2022/01/16 05:26:13;;;;;;;97.65;43.80;;;4.90;92.10;;;;;;5104804;28;20085;-67
2022/01/16 05:28:39;;;;;;;91.60;40.58;;;5.00;92.00;;;;;;5106935;27;20454;-66
2022/01/16 05:31:04;;;;;;;99.53;40.78;;;4.90;92.00;;;;;;5108786;28;20040;-67
2022/01/16 05:33:30;;;;;;;99.57;43.47;;;5.00;92.10;;;;;;5104753;28;20040;-67
2022/01/16 05:35:56;;;;;;;97.00;42.90;;;5.00;92.00;;;;;;5081936;28;20077;-67
2022/01/16 05:38:22;;;;;;;94.30;39.85;;;5.00;92.00;;;;;;5087312;28;20085;-67
2022/01/16 05:40:48;;;;;;;96.30;40.17;;;5.00;92.00;;;;;;5106611;28;20062;-67
2022/01/16 05:43:14;;;;;;;91.97;40.15;;;5.00;92.00;;;;;;5100926;28;20080;-68
2022/01/16 05:45:39;;;;;;;87.70;38.15;;;5.00;92.30;;;;;;5099645;28;20456;-67
2022/01/16 05:48:05;;;;;;;87.82;40.33;;;5.00;92.30;;;;;;5091028;28;20062;-67
2022/01/16 05:50:32;;;;;;;99.75;41.67;;;5.00;92.20;;;;;;5111627;28;20080;-67
2022/01/16 05:52:58;;;;;;;95.35;42.72;;;5.00;92.10;;;;;;5111518;28;20153;-68
2022/01/16 05:55:31;;;;;;;84.05;37.70;;;5.00;92.30;;;;;;5111579;28;20039;-67
2022/01/16 05:57:57;;;;;;;88.00;39.78;;;5.10;92.20;;;;;;5110060;28;20141;-67
2022/01/16 06:00:23;;;;;;;94.95;42.55;;;5.00;92.30;;;;;;5110612;28;20055;-67
2022/01/16 06:02:49;;;;;;;85.55;38.65;;;5.00;92.30;;;;;;5109900;28;20040;-67
2022/01/16 06:05:16;;;;;;;87.93;38.30;;;5.10;92.30;;;;;;5111533;28;20051;-67
2022/01/16 06:07:45;;;;;;;95.03;38.45;;;5.00;92.30;;;;;;5109176;28;20069;-67
2022/01/16 06:10:12;;;;;;;92.40;39.33;;;5.10;92.30;;;;;;5109676;28;20189;-67
2022/01/16 06:12:37;;;;;;;80.57;38.80;;;5.10;92.20;;;;;;5110024;28;20090;-67
2022/01/16 06:15:05;;;;;;;82.72;38.45;;;5.10;92.10;;;;;;5110720;28;20532;-66
2022/01/16 06:17:31;;;;;;;85.03;38.55;;;5.00;92.40;;;;;;5111037;28;20047;-67
2022/01/16 06:19:56;;;;;;;76.85;36.83;;;5.10;92.40;;;;;;5109657;27;20118;-67
2022/01/16 06:22:22;;;;;;;75.00;35.95;;;5.10;92.30;;;;;;5105142;28;20658;-67
2022/01/16 06:24:47;;;;;;;84.13;37.47;;;5.10;92.30;;;;;;5102745;28;20039;-68
2022/01/16 06:27:13;;;;;;;78.07;36.55;;;5.10;92.30;;;;;;5107105;28;20093;-68
2022/01/16 06:29:39;;;;;;;73.15;35.17;;;5.10;92.30;;;;;;5108781;28;20492;-68
2022/01/16 06:32:05;;;;;;;80.35;36.40;;;5.20;92.20;;;;;;5108053;28;20075;-67
2022/01/16 06:34:30;;;;;;;76.10;35.90;;;5.20;92.10;;;;;;5102536;28;20044;-67
2022/01/16 06:36:58;;;;;;;74.95;34.30;;;5.20;92.10;;;;;;5107014;28;20031;-67
2022/01/16 06:39:24;;;;;;;75.35;35.80;;;5.20;92.10;;;;;;5102197;28;20052;-67
2022/01/16 06:41:49;;;;;;;79.68;36.15;;;5.20;92.10;;;;;;5107126;28;20054;-67
2022/01/16 06:44:15;;;;;;;76.05;34.95;;;5.20;92.20;;;;;;5108702;28;20044;-67
2022/01/16 06:46:41;;;;;;;71.15;35.28;;;5.30;92.10;;;;;;5110175;28;20043;-68
2022/01/16 06:49:06;;;;;;;64.05;34.58;;;5.30;92.10;;;;;;5109595;28;20415;-67
2022/01/16 06:51:32;;;;;;;62.50;32.75;;;5.30;92.10;;;;;;5109915;28;20035;-68
2022/01/16 06:53:58;;;;;;;67.05;33.28;;;5.30;92.10;;;;;;5110115;28;20044;-72
2022/01/16 06:56:24;;;;;;;69.95;33.08;;;5.50;92.60;;;;;;5109894;28;20125;-72
2022/01/16 06:58:50;;;;;;;64.30;33.25;;;5.60;92.20;;;;;;5109698;28;20036;-72
2022/01/16 07:01:17;;;;;;;64.45;33.25;;;5.60;92.20;;;;;;5109913;28;20048;-73
2022/01/16 07:03:42;;;;;;;60.25;31.85;;;5.70;92.30;;;;;;5103027;28;20043;-72
2022/01/16 07:06:08;;;;;;;57.65;33.58;;;5.70;92.00;;;;;;5109326;28;20042;-72
2022/01/16 07:08:34;;;;;;;57.88;29.80;;;5.70;91.80;;;;;;5110429;28;20085;-72
2022/01/16 07:11:01;;;;;;;58.63;30.92;;;5.80;91.80;;;;;;5121309;27;20054;-73
2022/01/16 07:13:28;;;;;;;54.33;28.38;;;5.80;91.60;;;;;;5129937;27;20438;-73
2022/01/16 07:15:54;;;;;;;50.33;27.75;;;5.90;91.60;;;;;;5095054;27;20043;-73
2022/01/16 07:18:20;;;;;;;51.13;28.25;;;6.00;91.30;;;;;;5124916;27;20069;-73
2022/01/16 07:20:46;;;;;;;53.38;29.65;;;6.00;91.20;;;;;;5122120;27;20045;-74
2022/01/16 07:23:16;;;;;;;55.88;30.33;;;6.10;91.00;;;;;;5112784;27;20373;-73
2022/01/16 07:25:42;;;;;;;49.55;27.40;;;6.10;91.00;;;;;;5112323;27;20396;-72
2022/01/16 07:28:08;;;;;;;41.97;26.00;;;6.20;90.90;;;;;;5106586;28;20039;-72
2022/01/16 07:30:36;;;;;;;51.72;28.17;;;6.30;90.60;;;;;;5127757;27;20125;-73
2022/01/16 07:33:02;;;;;;;47.45;26.90;;;6.20;90.40;;;;;;5129314;27;20051;-73
2022/01/16 07:35:28;;;;;;;46.38;26.20;;;6.20;90.50;;;;;;5130395;27;20038;-73
2022/01/16 07:37:53;;;;;;;46.65;25.40;;;6.20;90.50;;;;;;5128411;27;20043;-67
2022/01/16 07:40:22;;;;;;;41.50;23.85;;;6.20;90.30;;;;;;5111154;28;20166;-67
2022/01/16 07:42:48;;;;;;;44.72;24.65;;;6.20;90.30;;;;;;5129318;27;20519;-67
2022/01/16 07:45:14;;;;;;;39.17;22.20;;;6.10;90.30;;;;;;5102885;28;20080;-66
2022/01/16 07:47:40;;;;;;;41.25;22.63;;;6.10;90.30;;;;;;5100984;27;20092;-67
2022/01/16 07:50:07;;;;;;;43.30;21.73;;;6.10;90.70;;;;;;5128843;27;20035;-67
2022/01/16 07:52:33;;;;;;;36.05;20.40;;;6.10;90.80;;;;;;5121477;27;20560;-67
2022/01/16 07:54:58;;;;;;;36.47;20.77;;;6.10;90.80;;;;;;5092610;27;20043;-66
2022/01/16 07:57:24;;;;;;;31.48;20.05;;;6.10;90.80;;;;;;5123704;27;20097;-66
2022/01/16 07:59:50;;;;;;;31.77;17.50;;;6.00;90.70;;;;;;5123337;27;20481;-68
2022/01/16 08:02:17;;;;;;;32.47;19.20;;;6.10;90.70;;;;;;5123129;28;20043;-68
2022/01/16 08:04:42;;;;;;;31.92;18.52;;;6.00;90.50;;;;;;5111036;28;20130;-67
2022/01/16 08:07:10;;;;;;;30.63;18.17;;;6.10;90.60;;;;;;5091892;28;20122;-68
2022/01/16 08:09:36;;;;;;;29.38;18.95;;;6.10;90.50;;;;;;5127918;28;21676;-67
2022/01/16 08:12:06;;;;;;;32.35;18.38;;;6.10;90.30;;;;;;5101514;28;20078;-68
2022/01/16 08:14:32;;;;;;;32.33;18.90;;;6.10;90.50;;;;;;5123736;27;20047;-68
2022/01/16 08:16:58;;;;;;;32.38;18.33;;;6.10;90.50;;;;;;5130338;27;20043;-68
2022/01/16 08:19:25;;;;;;;37.30;18.20;;;6.10;90.60;;;;;;5094518;28;20047;-67
2022/01/16 08:21:51;;;;;;;30.83;17.42;;;6.10;90.50;;;;;;5110745;28;20043;-67
2022/01/16 08:24:16;;;;;;;33.55;19.45;;;6.10;90.50;;;;;;5111469;28;20045;-67
2022/01/16 08:26:42;;;;;;;37.28;19.05;;;6.10;90.60;;;;;;5129405;28;20039;-67
2022/01/16 08:29:08;;;;;;;29.85;17.88;;;6.20;90.60;;;;;;5106423;28;20051;-66
2022/01/16 08:31:33;;;;;;;33.95;17.90;;;6.30;90.50;;;;;;5116858;28;20054;-66
2022/01/16 08:33:59;;;;;;;63.88;21.10;;;6.30;90.40;;;;;;5091111;28;20039;-67
2022/01/16 08:36:25;;;;;;;37.63;17.80;;;6.30;90.50;;;;;;5127438;28;20043;-66
2022/01/16 08:38:51;;;;;;;38.15;17.42;;;6.30;90.60;;;;;;5129891;28;20495;-66
2022/01/16 08:41:17;;;;;;;36.25;19.58;;;6.30;90.40;;;;;;5110644;28;20555;-64
2022/01/16 08:43:42;;;;;;;31.10;18.60;;;6.40;90.50;;;;;;5125591;27;20066;-66
2022/01/16 08:46:08;;;;;;;35.97;21.17;;;6.40;90.50;;;;;;5105615;28;20085;-65
2022/01/16 08:48:34;;;;;;;31.90;18.23;;;6.30;90.50;;;;;;5118462;28;20035;-64
2022/01/16 08:51:01;;;;;;;35.47;18.27;;;6.40;90.50;;;;;;5121445;28;20892;-65
2022/01/16 08:53:27;;;;;;;35.05;17.88;;;6.50;90.70;;;;;;5099045;28;20058;-65
2022/01/16 08:55:52;;;;;;;44.47;20.27;;;6.50;90.40;;;;;;5129010;28;20047;-65
2022/01/16 08:58:18;;;;;;;40.92;19.17;;;6.50;90.60;;;;;;5102204;28;20262;-65
2022/01/16 09:00:45;;;;;;;32.33;18.70;;;6.50;90.60;;;;;;5129009;28;20043;-65
2022/01/16 09:03:11;;;;;;;32.60;17.15;;;6.60;90.60;;;;;;5127680;28;20047;-66
2022/01/16 09:05:37;;;;;;;32.47;17.45;;;6.60;90.50;;;;;;5124218;28;20039;-66
2022/01/16 09:08:03;;;;;;;32.40;16.58;;;6.60;90.60;;;;;;5098115;28;20040;-65
2022/01/16 09:10:28;;;;;;;31.13;16.58;;;6.60;90.50;;;;;;5126772;27;20515;-65
2022/01/16 09:12:54;;;;;;;31.88;16.83;;;6.60;90.50;;;;;;5112025;27;20050;-65
2022/01/16 09:15:20;;;;;;;29.05;16.75;;;6.60;90.50;;;;;;5123261;27;20036;-65
2022/01/16 09:17:46;;;;;;;37.97;17.02;;;6.60;90.60;;;;;;5076661;28;20052;-65
2022/01/16 09:20:13;;;;;;;29.45;15.48;;;6.60;90.60;;;;;;5107445;27;20058;-65
2022/01/16 09:22:40;;;;;;;26.27;14.23;;;6.60;90.50;;;;;;5126277;27;20043;-66
2022/01/16 09:25:07;;;;;;;33.55;14.40;;;6.60;90.60;;;;;;5127144;27;20055;-64
2022/01/16 09:27:33;;;;;;;21.67;12.73;;;6.70;90.50;;;;;;5130665;27;20066;-66
2022/01/16 09:29:59;;;;;;;30.10;14.07;;;6.70;90.50;;;;;;5130895;27;20671;-65
2022/01/16 09:32:26;;;;;;;29.45;13.10;;;6.70;90.40;;;;;;5126170;27;20035;-66
2022/01/16 09:34:51;;;;;;;29.75;13.43;;;6.70;90.50;;;;;;5127339;27;20126;-66
2022/01/16 09:37:17;;;;;;;21.48;10.90;;;6.70;90.40;;;;;;5126844;27;20134;-65
2022/01/16 09:39:43;;;;;;;24.13;12.65;;;6.80;90.40;;;;;;5130084;27;20388;-68
2022/01/16 09:42:09;;;;;;;22.02;11.10;;;6.90;90.00;;;;;;5131499;27;20042;-70
2022/01/16 09:44:37;;;;;;;30.30;13.05;;;6.90;89.80;;;;;;5111828;27;20149;-68
2022/01/16 09:47:03;;;;;;;22.23;11.20;;;6.90;89.70;;;;;;5131171;27;20057;-70
2022/01/16 09:49:30;;;;;;;26.35;10.68;;;6.90;89.70;;;;;;5110631;27;20055;-69
2022/01/16 09:51:56;;;;;;;21.05;10.23;;;6.90;89.60;;;;;;5132166;27;20137;-69
2022/01/16 09:54:26;;;;;;;31.55;11.30;;;6.90;89.70;;;;;;5128912;27;20051;-69
2022/01/16 09:56:51;;;;;;;21.60;10.60;;;6.90;89.60;;;;;;5113382;27;20047;-69
2022/01/16 09:59:17;;;;;;;25.00;10.02;;;6.90;89.50;;;;;;5131354;27;20035;-71
2022/01/16 10:01:43;;;;;;;27.50;10.82;;;6.90;89.30;;;;;;5130145;27;20040;-69
2022/01/16 10:04:29;;;;;;;18.65;9.52;;;6.90;89.10;;;;;;5130551;27;20138;-69
2022/01/16 10:06:58;;;;;;;23.98;9.63;;;6.90;89.10;;;;;;5124221;27;20118;-70
2022/01/16 10:09:24;;;;;;;23.23;10.13;;;6.90;88.90;;;;;;5111721;28;20052;-69
2022/01/16 10:11:58;;;;;;;25.08;8.82;;;6.90;88.90;;;;;;5123839;27;20051;-69
2022/01/16 10:14:37;;;;;;;24.33;10.25;;;7.00;88.80;;;;;;5112629;27;20499;-69
2022/01/16 10:17:11;;;;;;;27.95;9.68;;;7.00;89.00;;;;;;5130811;27;20118;-69
2022/01/16 10:19:37;;;;;;;28.95;9.35;;;6.90;88.80;;;;;;5112994;27;20495;-68
2022/01/16 10:22:08;;;;;;;17.45;8.27;;;6.90;88.70;;;;;;5130089;27;20138;-69
2022/01/16 10:24:35;;;;;;;34.55;8.90;;;7.00;88.70;;;;;;5118916;27;20043;-69
2022/01/16 10:27:07;;;;;;;24.73;8.60;;;7.00;88.50;;;;;;5130128;27;20095;-70
2022/01/16 10:29:38;;;;;;;18.20;7.47;;;7.00;88.40;;;;;;5113066;27;20595;-69
2022/01/16 10:32:11;;;;;;;19.15;7.40;;;7.00;88.60;;;;;;5131539;27;20376;-70
2022/01/16 10:34:37;;;;;;;25.00;7.68;;;7.00;88.40;;;;;;5131480;27;20031;-70
2022/01/16 10:37:22;;;;;;;23.30;7.15;;;7.00;88.50;;;;;;5130545;27;20129;-70
2022/01/16 10:39:52;;;;;;;23.23;7.25;;;7.10;88.50;;;;;;5112205;27;20047;-69
2022/01/16 10:42:18;;;;;;;19.25;8.70;;;7.10;88.10;;;;;;5112760;27;20050;-69
2022/01/16 10:44:53;;;;;;;21.52;6.72;;;7.10;88.40;;;;;;5112444;27;20434;-69
2022/01/16 10:47:28;;;;;;;21.92;7.25;;;7.10;88.30;;;;;;5130720;27;20138;-69
2022/01/16 10:50:01;;;;;;;22.90;8.05;;;7.10;88.30;;;;;;5095440;27;20035;-69
2022/01/16 10:52:27;;;;;;;24.67;7.60;;;7.10;88.30;;;;;;5110439;28;20502;-69
2022/01/16 10:54:53;;;;;;;25.77;7.03;;;7.10;88.00;;;;;;5112069;27;20081;-69
2022/01/16 10:57:26;;;;;;;27.20;7.38;;;7.10;88.10;;;;;;5131400;27;20091;-69
2022/01/16 11:00:18;;;;;;;20.40;8.50;;;7.10;88.20;;;;;;5128284;27;20117;-68
2022/01/16 11:02:46;;;;;;;17.45;8.13;;;7.20;88.10;;;;;;5124521;27;20043;-68
2022/01/16 11:05:18;;;;;;;12.70;6.47;;;7.20;87.90;;;;;;5111572;27;20042;-72
2022/01/16 11:07:45;;;;;;;24.75;7.15;;;7.20;87.90;;;;;;5108992;27;20094;-69
2022/01/16 11:10:23;;;;;;;17.77;6.93;;;7.20;87.90;;;;;;5102455;27;20056;-68
2022/01/16 11:12:50;;;;;;;19.75;7.15;;;7.20;88.00;;;;;;5106053;27;20475;-68
2022/01/16 11:15:16;;;;;;;14.35;7.40;;;7.20;87.70;;;;;;5111566;27;20476;-68
2022/01/16 11:17:42;;;;;;;28.48;8.77;;;7.20;87.60;;;;;;5128077;27;20039;-67
2022/01/16 11:20:09;;;;;;;23.77;8.55;;;7.20;87.70;;;;;;5129823;27;20697;-68
2022/01/16 11:22:55;;;;;;;19.55;7.47;;;7.20;87.80;;;;;;5128952;27;20498;-69
2022/01/16 11:25:31;;;;;;;20.00;7.43;;;7.30;87.50;;;;;;5130365;27;20053;-70
2022/01/16 11:28:02;;;;;;;26.15;8.25;;;7.30;87.60;;;;;;5078408;28;20100;-69
2022/01/16 11:30:30;;;;;;;22.52;7.75;;;7.30;87.80;;;;;;5119778;27;20032;-71
2022/01/16 11:32:57;;;;;;;22.73;7.88;;;7.30;87.70;;;;;;5084849;28;20039;-70
2022/01/16 11:35:24;;;;;;;20.50;7.10;;;7.30;87.90;;;;;;5082563;27;20043;-70
2022/01/16 11:37:50;;;;;;;19.70;6.85;;;7.30;87.60;;;;;;5085431;27;20039;-70
2022/01/16 11:40:27;;;;;;;22.85;7.90;;;7.40;87.50;;;;;;5121625;27;20043;-68
2022/01/16 11:43:31;;;;;;;19.15;9.02;;;7.40;87.80;;;;;;5127221;27;20488;-68
2022/01/16 11:46:07;;;;;;;17.88;7.00;;;7.50;86.80;;;;;;5084949;27;20084;-68
2022/01/16 11:48:55;;;;;;;15.43;5.93;;;7.50;85.90;;;;;;5125173;27;20095;-69
2022/01/16 11:51:36;;;;;;;21.52;7.60;;;7.50;86.30;;;;;;5119247;27;20175;-69
2022/01/16 11:54:04;;;;;;;18.20;8.00;;;7.50;85.90;;;;;;5107341;27;20054;-69
2022/01/16 11:59:25;;;;;;;13.88;6.90;;;7.60;85.90;;;;;;5106909;27;20050;-69
2022/01/16 12:01:58;;;;;;;18.92;8.35;;;7.60;86.00;;;;;;5126707;27;20035;-69
2022/01/16 12:04:30;;;;;;;15.05;6.95;;;7.60;85.90;;;;;;5118037;28;20048;-68
2022/01/16 12:06:59;;;;;;;26.05;7.60;;;7.60;86.00;;;;;;5084177;28;20449;-69
2022/01/16 12:09:34;;;;;;;19.88;8.63;;;7.50;86.10;;;;;;5120911;28;20142;-68
2022/01/16 12:12:01;;;;;;;19.90;6.78;;;7.60;86.10;;;;;;5125290;28;20059;-70
2022/01/16 12:14:59;;;;;;;26.13;7.07;;;7.60;86.10;;;;;;5104862;28;20248;-70
2022/01/16 12:17:29;;;;;;;17.75;7.43;;;7.60;86.10;;;;;;5125944;28;20037;-69
2022/01/16 12:20:14;;;;;;;23.88;9.23;;;7.60;86.10;;;;;;5122190;28;20557;-70
2022/01/16 12:22:46;;;;;;;23.60;7.53;;;7.60;86.00;;;;;;5128855;28;20047;-69
2022/01/16 12:25:21;;;;;;;22.35;7.70;;;7.60;86.00;;;;;;5109973;28;20039;-69
2022/01/16 12:27:55;;;;;;;23.30;8.38;;;7.70;86.20;;;;;;5110605;28;20517;-69
2022/01/16 12:30:32;;;;;;;17.77;8.25;;;7.60;86.30;;;;;;5128602;28;20055;-71
2022/01/16 12:33:10;;;;;;;23.55;6.93;;;7.60;86.40;;;;;;5092022;28;20134;-69
2022/01/16 12:35:39;;;;;;;25.02;7.55;;;7.60;86.60;;;;;;5119681;28;20075;-69
2022/01/16 12:38:10;;;;;;;16.38;6.80;;;7.60;86.60;;;;;;5093309;28;20066;-69
2022/01/16 12:40:38;;;;;;;21.87;8.87;;;7.60;86.60;;;;;;5101681;28;20495;-69
2022/01/16 12:43:06;;;;;;;22.60;7.78;;;7.60;86.60;;;;;;5114712;28;20437;-68
2022/01/16 12:45:39;;;;;;;19.83;6.97;;;7.60;86.80;;;;;;5114964;28;20071;-69
2022/01/16 12:48:06;;;;;;;21.65;6.97;;;7.60;86.80;;;;;;5112058;28;20092;-70
2022/01/16 12:50:33;;;;;;;23.33;7.95;;;7.60;86.90;;;;;;5119947;27;20046;-69
2022/01/16 12:52:59;;;;;;;17.02;6.35;;;7.60;86.90;;;;;;5083408;27;20036;-69
2022/01/16 12:55:30;;;;;;;20.60;6.57;;;7.70;87.00;;;;;;5113024;27;20088;-69
2022/01/16 12:58:19;;;;;;;15.35;6.50;;;7.60;86.90;;;;;;5123954;27;20072;-70
2022/01/16 13:01:04;;;;;;;23.27;6.97;;;7.60;87.10;;;;;;5129151;27;20119;-70
2022/01/16 13:03:32;;;;;;;23.48;6.57;;;7.70;87.30;;;;;;5132469;27;20043;-69
2022/01/16 13:06:20;;;;;;;23.52;7.47;;;7.70;87.30;;;;;;5119454;27;20051;-71
2022/01/16 13:09:10;;;;;;;22.50;6.82;;;7.80;87.30;;;;;;5131597;27;20092;-71
2022/01/16 13:11:47;;;;;;;24.75;6.97;;;7.70;87.60;;;;;;5132506;27;20096;-71
2022/01/16 13:14:34;;;;;;;18.83;5.95;;;7.70;87.80;;;;;;5132185;27;20057;-68
2022/01/16 13:17:03;;;;;;;25.55;9.27;;;7.60;87.80;;;;;;5131332;27;20038;-70
2022/01/16 13:19:49;;;;;;;22.38;6.50;;;7.60;88.00;;;;;;5108042;27;20042;-71
2022/01/16 13:22:17;;;;;;;19.77;6.55;;;7.60;88.00;;;;;;5130342;27;20052;-70
2022/01/16 13:24:46;;;;;;;22.75;6.90;;;7.70;88.10;;;;;;5097793;27;20047;-71
2022/01/16 13:27:18;;;;;;;19.55;10.57;;;7.70;88.00;;;;;;5095908;27;20047;-70
2022/01/16 13:29:46;;;;;;;19.30;8.90;;;7.70;88.10;;;;;;5096737;27;20047;-69